createdAt,value
2017-12-02T00:00:49.807Z,34.65
2017-12-02T00:01:53.128Z,31.92
2017-12-02T00:02:55.717Z,37.03
2017-12-02T00:03:58.260Z,34.63
2017-12-02T00:05:00.867Z,32.55
2017-12-02T00:06:04.390Z,36.45
2017-12-02T00:07:06.990Z,34.78
2017-12-02T00:08:10.544Z,35.17
2017-12-02T00:09:13.846Z,35.92
2017-12-02T00:10:16.921Z,36.63
2017-12-02T00:11:19.499Z,37.33
2017-12-02T00:12:22.039Z,33.92
2017-12-02T00:13:25.342Z,35.85
2017-12-02T00:14:27.891Z,34.25
2017-12-02T00:15:31.205Z,36.40
2017-12-02T00:16:33.869Z,35.92
2017-12-02T00:17:36.456Z,33.50
2017-12-02T00:18:39.016Z,37.28
2017-12-02T00:19:41.558Z,36.17
2017-12-02T00:20:44.139Z,36.42
2017-12-02T00:21:46.679Z,35.30
2017-12-02T00:22:49.278Z,37.05
2017-12-02T00:23:51.832Z,37.05
2017-12-02T00:24:55.403Z,36.33
2017-12-02T00:25:58.713Z,36.35
2017-12-02T00:27:01.286Z,34.83
2017-12-02T00:28:03.852Z,34.30
2017-12-02T00:29:06.418Z,37.03
2017-12-02T00:30:08.957Z,35.75
2017-12-02T00:31:12.275Z,34.92
2017-12-02T00:32:14.853Z,34.25
2017-12-02T00:33:17.416Z,36.92
2017-12-02T00:34:19.958Z,36.10
2017-12-02T00:35:22.498Z,31.27
2017-12-02T00:36:25.851Z,32.60
2017-12-02T00:37:28.408Z,28.87
2017-12-02T00:38:30.948Z,32.58
2017-12-02T00:39:34.643Z,31.15
2017-12-02T00:40:37.208Z,33.47
2017-12-02T00:41:39.769Z,31.00
2017-12-02T00:42:42.319Z,30.60
2017-12-02T00:43:46.328Z,30.40
2017-12-02T00:44:49.634Z,30.50
2017-12-02T00:45:52.172Z,33.20
2017-12-02T00:46:55.529Z,31.48
2017-12-02T00:47:58.878Z,34.83
2017-12-02T00:49:02.252Z,32.30
2017-12-02T00:50:04.832Z,33.13
2017-12-02T00:51:07.395Z,29.00
2017-12-02T00:52:11.001Z,29.60
2017-12-02T00:53:13.559Z,30.12
2017-12-02T00:54:17.116Z,28.30
2017-12-02T00:55:20.418Z,34.72
2017-12-02T00:56:23.173Z,27.90
2017-12-02T00:57:25.757Z,30.00
2017-12-02T00:58:29.360Z,33.60
2017-12-02T00:59:31.935Z,34.00
2017-12-02T01:00:34.461Z,32.03
2017-12-02T01:01:37.670Z,32.67
2017-12-02T01:02:40.242Z,34.72
2017-12-02T01:03:42.813Z,32.65
2017-12-02T01:04:45.359Z,32.20
2017-12-02T01:05:48.648Z,32.40
2017-12-02T01:06:51.196Z,31.17
2017-12-02T01:07:53.787Z,30.98
2017-12-02T01:08:56.328Z,28.62
2017-12-02T01:09:59.653Z,28.48
2017-12-02T01:11:02.198Z,29.08
2017-12-02T01:12:04.747Z,29.08
2017-12-02T01:13:07.329Z,28.87
2017-12-02T01:14:09.867Z,32.00
2017-12-02T01:15:13.393Z,30.75
2017-12-02T01:16:16.061Z,31.52
2017-12-02T01:17:19.435Z,32.97
2017-12-02T01:18:22.007Z,30.35
2017-12-02T01:19:24.559Z,30.83
2017-12-02T01:20:27.102Z,27.25
2017-12-02T01:21:29.707Z,32.63
2017-12-02T01:22:32.244Z,29.95
2017-12-02T01:23:35.614Z,26.95
2017-12-02T01:24:38.141Z,27.73
2017-12-02T01:25:40.991Z,28.92
2017-12-02T01:26:43.524Z,28.90
2017-12-02T01:27:47.167Z,26.45
2017-12-02T01:28:49.721Z,26.37
2017-12-02T01:29:52.267Z,25.20
2017-12-02T01:30:55.578Z,26.05
2017-12-02T01:31:58.118Z,28.27
2017-12-02T01:33:01.434Z,22.73
2017-12-02T01:34:03.982Z,25.80
2017-12-02T01:35:06.537Z,24.37
2017-12-02T01:36:09.882Z,25.70
2017-12-02T01:37:12.435Z,23.98
2017-12-02T01:38:14.971Z,24.40
2017-12-02T01:39:17.502Z,23.17
2017-12-02T01:40:20.049Z,23.90
2017-12-02T01:41:23.409Z,21.70
2017-12-02T01:42:25.985Z,22.65
2017-12-02T01:43:29.813Z,22.50
2017-12-02T01:44:32.378Z,24.67
2017-12-02T01:45:34.925Z,23.55
2017-12-02T01:46:37.910Z,24.48
2017-12-02T01:47:40.970Z,24.92
2017-12-02T01:48:44.520Z,24.48
2017-12-02T01:49:47.825Z,27.52
2017-12-02T01:50:50.558Z,26.95
2017-12-02T01:51:53.875Z,25.20
2017-12-02T01:52:56.462Z,27.02
2017-12-02T01:53:59.011Z,24.08
2017-12-02T01:55:01.557Z,23.25
2017-12-02T01:56:04.151Z,24.40
2017-12-02T01:57:06.689Z,22.27
2017-12-02T01:58:10.103Z,23.98
2017-12-02T01:59:12.628Z,21.33
2017-12-02T02:00:15.947Z,25.60
2017-12-02T02:01:18.504Z,24.60
2017-12-02T02:02:21.804Z,23.92
2017-12-02T02:03:24.387Z,25.55
2017-12-02T02:04:26.921Z,25.25
2017-12-02T02:05:29.508Z,24.45
2017-12-02T02:06:32.063Z,25.10
2017-12-02T02:07:34.639Z,25.30
2017-12-02T02:08:37.535Z,24.05
2017-12-02T02:09:40.080Z,23.40
2017-12-02T02:10:42.620Z,25.75
2017-12-02T02:11:45.928Z,25.73
2017-12-02T02:12:48.468Z,25.23
2017-12-02T02:13:51.782Z,25.42
2017-12-02T02:14:54.303Z,23.83
2017-12-02T02:15:57.732Z,25.48
2017-12-02T02:17:00.276Z,25.20
2017-12-02T02:18:03.567Z,23.08
2017-12-02T02:19:06.896Z,23.55
2017-12-02T02:20:09.421Z,24.63
2017-12-02T02:21:11.995Z,22.58
2017-12-02T02:22:14.542Z,23.98
2017-12-02T02:23:18.710Z,24.73
2017-12-02T02:24:21.448Z,25.20
2017-12-02T02:25:23.994Z,25.85
2017-12-02T02:26:26.680Z,26.58
2017-12-02T02:27:29.238Z,23.40
2017-12-02T02:28:31.796Z,24.95
2017-12-02T02:29:34.353Z,23.60
2017-12-02T02:30:38.726Z,23.48
2017-12-02T02:31:41.252Z,23.87
2017-12-02T02:32:43.843Z,23.75
2017-12-02T02:33:46.756Z,24.40
2017-12-02T02:34:49.315Z,23.00
2017-12-02T02:35:51.846Z,22.42
2017-12-02T02:36:54.391Z,22.35
2017-12-02T02:37:56.942Z,22.92
2017-12-02T02:39:00.433Z,22.77
2017-12-02T02:40:02.982Z,24.20
2017-12-02T02:41:06.312Z,24.92
2017-12-02T02:42:08.864Z,21.33
2017-12-02T02:43:11.413Z,21.27
2017-12-02T02:57:18.984Z,17.27
2017-12-02T02:58:22.287Z,22.58
2017-12-02T02:59:24.836Z,23.30
2017-12-02T03:00:28.125Z,24.17
2017-12-02T03:01:30.671Z,26.48
2017-12-02T03:02:34.288Z,24.63
2017-12-02T03:03:36.821Z,24.42
2017-12-02T03:04:40.142Z,25.40
2017-12-02T03:05:42.689Z,27.87
2017-12-02T03:06:46.099Z,25.83
2017-12-02T03:07:48.630Z,26.67
2017-12-02T03:08:51.175Z,25.83
2017-12-02T03:09:54.142Z,24.67
2017-12-02T03:10:56.677Z,26.45
2017-12-02T03:11:59.208Z,25.08
2017-12-02T03:13:03.629Z,24.52
2017-12-02T03:14:06.969Z,24.08
2017-12-02T03:15:09.504Z,23.35
2017-12-02T03:16:12.071Z,23.70
2017-12-02T03:17:14.599Z,27.13
2017-12-02T03:18:17.134Z,25.33
2017-12-02T03:19:19.705Z,25.35
2017-12-02T03:20:22.236Z,23.30
2017-12-02T03:21:24.769Z,25.90
2017-12-02T03:22:28.088Z,24.60
2017-12-02T03:23:30.623Z,26.52
2017-12-02T03:24:34.776Z,24.15
2017-12-02T03:25:37.327Z,24.00
2017-12-02T03:26:39.888Z,23.52
2017-12-02T03:27:42.433Z,23.65
2017-12-02T03:28:45.773Z,23.12
2017-12-02T03:29:48.318Z,25.25
2017-12-02T03:30:50.861Z,23.58
2017-12-02T03:31:53.401Z,24.65
2017-12-02T03:32:55.939Z,24.92
2017-12-02T03:33:58.476Z,26.05
2017-12-02T03:35:01.014Z,24.60
2017-12-02T03:36:05.431Z,25.40
2017-12-02T03:37:08.792Z,25.12
2017-12-02T03:38:12.096Z,25.98
2017-12-02T03:39:15.393Z,23.17
2017-12-02T03:40:17.966Z,22.00
2017-12-02T03:41:20.517Z,24.10
2017-12-02T03:42:23.821Z,24.23
2017-12-02T03:43:26.365Z,23.05
2017-12-02T03:44:29.662Z,23.00
2017-12-02T03:45:32.222Z,22.58
2017-12-02T03:46:35.524Z,22.73
2017-12-02T03:47:38.051Z,24.23
2017-12-02T03:48:41.363Z,25.23
2017-12-02T03:49:43.917Z,23.40
2017-12-02T03:50:46.498Z,22.60
2017-12-02T03:51:49.012Z,23.75
2017-12-02T03:52:51.616Z,24.12
2017-12-02T03:53:54.924Z,23.50
2017-12-02T03:54:57.469Z,20.80
2017-12-02T03:56:00.774Z,25.20
2017-12-02T03:57:03.452Z,22.80
2017-12-02T03:58:06.119Z,21.95
2017-12-02T03:59:08.643Z,24.00
2017-12-02T04:13:11.262Z,17.65
2017-12-02T04:14:13.845Z,17.70
2017-12-02T04:15:17.147Z,21.98
2017-12-02T04:16:20.452Z,19.30
2017-12-02T04:17:24.377Z,23.08
2017-12-02T04:18:26.959Z,19.98
2017-12-02T04:19:29.495Z,21.58
2017-12-02T04:20:32.056Z,23.25
2017-12-02T04:21:35.115Z,26.58
2017-12-02T04:22:39.448Z,25.98
2017-12-02T04:23:41.996Z,25.92
2017-12-02T04:24:45.332Z,26.15
2017-12-02T04:25:47.865Z,27.30
2017-12-02T04:26:50.403Z,24.48
2017-12-02T04:27:53.700Z,26.87
2017-12-02T04:28:57.008Z,26.65
2017-12-02T04:29:59.548Z,25.40
2017-12-02T04:31:02.854Z,25.73
2017-12-02T04:32:05.404Z,23.38
2017-12-02T04:33:07.990Z,26.75
2017-12-02T04:34:10.563Z,26.30
2017-12-02T04:35:13.122Z,24.33
2017-12-02T04:36:15.674Z,27.25
2017-12-02T04:37:18.339Z,26.20
2017-12-02T04:38:21.638Z,25.50
2017-12-02T04:39:24.196Z,23.35
2017-12-02T04:40:26.727Z,25.88
2017-12-02T04:41:29.279Z,23.40
2017-12-02T04:42:31.802Z,23.55
2017-12-02T04:43:34.374Z,23.98
2017-12-02T04:44:36.924Z,23.73
2017-12-02T04:45:40.281Z,23.10
2017-12-02T04:46:42.820Z,22.25
2017-12-02T04:47:45.381Z,23.60
2017-12-02T04:48:47.908Z,22.90
2017-12-02T04:49:51.230Z,22.73
2017-12-02T04:50:53.796Z,21.23
2017-12-02T04:51:56.369Z,24.00
2017-12-02T04:52:58.943Z,22.35
2017-12-02T04:54:01.490Z,21.45
2017-12-02T04:55:04.056Z,21.08
2017-12-02T04:56:06.630Z,21.60
2017-12-02T04:57:09.157Z,19.65
2017-12-02T04:58:12.975Z,20.70
2017-12-02T04:59:15.558Z,20.02
2017-12-02T05:00:18.107Z,19.52
2017-12-02T05:01:20.666Z,19.87
2017-12-02T05:02:23.229Z,20.37
2017-12-02T05:03:25.825Z,20.42
2017-12-02T05:04:28.371Z,19.75
2017-12-02T05:05:30.907Z,20.65
2017-12-02T05:06:33.456Z,20.20
2017-12-02T05:07:36.010Z,19.50
2017-12-02T05:08:38.557Z,19.60
2017-12-02T05:09:41.102Z,17.77
2017-12-02T05:10:43.659Z,19.45
2017-12-02T05:11:46.972Z,21.27
2017-12-02T05:12:49.515Z,21.60
2017-12-02T05:13:52.853Z,20.08
2017-12-02T05:14:55.371Z,19.17
2017-12-02T05:15:57.898Z,20.00
2017-12-02T05:17:00.444Z,22.62
2017-12-02T05:18:02.983Z,22.80
2017-12-02T05:19:05.524Z,20.50
2017-12-02T05:20:08.112Z,22.02
2017-12-02T05:21:10.658Z,21.30
2017-12-02T05:22:13.209Z,19.60
2017-12-02T05:23:17.528Z,21.25
2017-12-02T05:24:20.832Z,18.15
2017-12-02T05:25:23.398Z,19.15
2017-12-02T05:26:25.929Z,22.52
2017-12-02T05:27:28.488Z,18.92
2017-12-02T05:28:31.031Z,20.15
2017-12-02T05:29:35.596Z,21.30
2017-12-02T05:30:38.146Z,18.45
2017-12-02T05:31:41.488Z,20.08
2017-12-02T05:32:44.057Z,20.88
2017-12-02T05:33:46.783Z,21.90
2017-12-02T05:34:50.116Z,21.73
2017-12-02T05:35:52.697Z,20.17
2017-12-02T05:36:55.235Z,22.48
2017-12-02T05:37:57.769Z,21.10
2017-12-02T05:39:00.300Z,20.33
2017-12-02T05:40:03.108Z,23.67
2017-12-02T05:41:05.688Z,21.65
2017-12-02T05:42:08.304Z,21.95
2017-12-02T05:43:10.862Z,22.60
2017-12-02T05:44:13.404Z,21.50
2017-12-02T05:45:15.959Z,20.70
2017-12-02T05:46:18.522Z,18.98
2017-12-02T05:47:21.060Z,22.87
2017-12-02T05:48:25.411Z,20.17
2017-12-02T05:49:27.945Z,19.23
2017-12-02T05:50:31.285Z,18.62
2017-12-02T05:51:33.819Z,20.65
2017-12-02T05:52:36.348Z,18.73
2017-12-02T05:53:38.888Z,20.98
2017-12-02T05:54:41.438Z,18.48
2017-12-02T05:55:43.979Z,18.80
2017-12-02T05:56:47.051Z,20.23
2017-12-02T05:57:49.580Z,19.40
2017-12-02T05:58:53.091Z,20.20
2017-12-02T05:59:56.409Z,21.27
2017-12-02T06:00:58.963Z,19.75
2017-12-02T06:02:01.505Z,19.15
2017-12-02T06:03:04.904Z,19.30
2017-12-02T06:04:08.196Z,18.00
2017-12-02T06:05:10.761Z,18.20
2017-12-02T06:06:13.329Z,18.45
2017-12-02T06:07:15.992Z,19.12
2017-12-02T06:08:19.333Z,19.15
2017-12-02T06:09:21.956Z,20.08
2017-12-02T06:52:40.605Z,14.82
2017-12-02T06:53:43.139Z,16.30
2017-12-02T06:54:45.700Z,18.00
2017-12-02T06:55:48.996Z,18.45
2017-12-02T06:56:51.752Z,19.15
2017-12-02T06:57:55.066Z,18.73
2017-12-02T06:58:57.597Z,18.52
2017-12-02T07:00:05.090Z,20.27
2017-12-02T07:01:08.422Z,19.00
2017-12-02T07:02:11.111Z,18.77
2017-12-02T07:03:17.213Z,20.58
2017-12-02T07:04:20.648Z,19.25
2017-12-02T07:05:24.438Z,19.52
2017-12-02T07:06:28.179Z,20.00
2017-12-02T07:07:32.281Z,17.10
2017-12-02T07:08:34.809Z,21.48
2017-12-02T07:09:37.754Z,19.08
2017-12-02T07:10:40.303Z,18.25
2017-12-02T07:11:43.879Z,18.77
2017-12-02T07:12:48.422Z,17.67
2017-12-02T07:13:50.960Z,18.20
2017-12-02T07:14:58.921Z,20.70
2017-12-02T07:16:06.667Z,19.55
2017-12-02T07:17:10.134Z,20.42
2017-12-02T07:18:13.734Z,20.05
2017-12-02T07:19:20.624Z,20.08
2017-12-02T07:20:25.653Z,19.15
2017-12-02T07:21:31.108Z,17.90
2017-12-02T07:22:38.150Z,17.90
2017-12-02T07:23:43.687Z,17.60
2017-12-02T07:24:48.586Z,17.50
2017-12-02T07:25:52.184Z,18.12
2017-12-02T07:26:55.373Z,17.50
2017-12-02T07:27:57.914Z,17.35
2017-12-02T07:29:01.233Z,18.67
2017-12-02T07:30:04.637Z,17.58
2017-12-02T07:31:09.973Z,17.77
2017-12-02T07:32:14.135Z,17.87
2017-12-02T07:33:17.831Z,17.62
2017-12-02T07:34:22.456Z,17.40
2017-12-02T07:35:25.812Z,19.05
2017-12-02T07:36:33.156Z,19.12
2017-12-02T07:37:37.682Z,16.95
2017-12-02T07:38:40.283Z,18.23
2017-12-02T07:39:42.918Z,18.98
2017-12-02T07:40:46.328Z,18.75
2017-12-02T07:41:48.884Z,17.10
2017-12-02T07:42:52.212Z,17.15
2017-12-02T07:43:54.964Z,17.75
2017-12-02T07:44:57.544Z,18.83
2017-12-02T07:46:00.076Z,20.02
2017-12-02T07:47:03.382Z,17.70
2017-12-02T07:48:05.932Z,17.00
2017-12-02T07:49:09.269Z,17.00
2017-12-02T07:50:11.952Z,17.70
2017-12-02T07:51:14.998Z,17.30
2017-12-02T07:52:17.555Z,17.80
2017-12-02T07:53:20.087Z,19.12
2017-12-02T07:54:23.380Z,19.67
2017-12-02T07:55:26.766Z,19.05
2017-12-02T07:56:30.112Z,19.60
2017-12-02T07:57:32.647Z,19.40
2017-12-02T07:58:35.204Z,18.23
2017-12-02T07:59:37.736Z,18.75
2017-12-02T08:00:42.122Z,16.98
2017-12-02T08:01:45.440Z,16.70
2017-12-02T08:02:48.928Z,19.58
2017-12-02T08:03:52.251Z,18.00
2017-12-02T08:04:55.838Z,18.65
2017-12-02T08:05:58.385Z,17.10
2017-12-02T08:07:00.933Z,18.45
2017-12-02T08:08:03.523Z,16.15
2017-12-02T08:09:06.067Z,15.43
2017-12-02T08:10:09.415Z,17.90
2017-12-02T08:11:12.036Z,15.07
2017-12-02T08:12:14.589Z,15.50
2017-12-02T08:13:17.896Z,16.40
2017-12-02T08:14:20.422Z,16.90
2017-12-02T08:15:22.998Z,16.48
2017-12-02T08:16:27.014Z,16.08
2017-12-02T08:17:30.314Z,16.05
2017-12-02T08:18:33.865Z,15.85
2017-12-02T08:19:37.190Z,16.00
2017-12-02T08:20:40.032Z,16.15
2017-12-02T08:21:44.096Z,15.30
2017-12-02T08:22:46.680Z,16.98
2017-12-02T08:23:49.237Z,15.18
2017-12-02T08:24:51.763Z,16.42
2017-12-02T08:25:55.238Z,15.55
2017-12-02T08:26:58.552Z,16.45
2017-12-02T08:28:01.138Z,16.12
2017-12-02T08:29:03.721Z,15.57
2017-12-02T08:30:08.409Z,16.12
2017-12-02T08:31:10.958Z,14.23
2017-12-02T08:32:13.646Z,13.05
2017-12-02T08:33:16.178Z,14.57
2017-12-02T08:34:19.521Z,13.95
2017-12-02T08:35:22.060Z,15.00
2017-12-02T08:36:24.638Z,15.23
2017-12-02T08:37:27.186Z,16.05
2017-12-02T08:38:29.740Z,14.73
2017-12-02T08:39:32.336Z,14.27
2017-12-02T08:40:35.905Z,16.52
2017-12-02T08:41:39.219Z,14.60
2017-12-02T08:42:41.781Z,15.60
2017-12-02T08:43:44.329Z,15.85
2017-12-02T08:44:47.306Z,14.93
2017-12-02T08:45:49.840Z,14.27
2017-12-02T08:46:53.125Z,14.52
2017-12-02T08:47:56.514Z,16.20
2017-12-02T08:49:00.861Z,13.80
2017-12-02T08:50:03.530Z,16.23
2017-12-02T08:51:06.064Z,13.45
2017-12-02T08:52:08.855Z,13.73
2017-12-02T08:53:11.542Z,15.30
2017-12-02T08:54:14.253Z,16.98
2017-12-02T08:55:17.586Z,14.50
2017-12-02T08:56:20.127Z,15.18
2017-12-02T08:57:22.737Z,14.30
2017-12-02T08:58:25.265Z,13.93
2017-12-02T08:59:28.767Z,14.57
2017-12-02T09:00:31.304Z,14.10
2017-12-02T09:01:34.646Z,14.27
2017-12-02T09:02:37.227Z,13.50
2017-12-02T09:03:39.814Z,14.68
2017-12-02T09:04:42.352Z,15.18
2017-12-02T09:05:44.894Z,14.18
2017-12-02T09:06:47.472Z,15.73
2017-12-02T09:07:51.050Z,14.52
2017-12-02T09:08:53.603Z,15.63
2017-12-02T09:09:56.283Z,16.65
2017-12-02T09:10:58.860Z,15.13
2017-12-02T09:12:01.404Z,14.90
2017-12-02T09:13:03.940Z,15.30
2017-12-02T09:14:06.481Z,15.00
2017-12-02T09:15:09.049Z,13.38
2017-12-02T09:16:11.661Z,14.57
2017-12-02T09:17:14.974Z,14.27
2017-12-02T09:18:18.053Z,12.82
2017-12-02T09:19:20.730Z,13.45
2017-12-02T09:20:23.275Z,12.98
2017-12-02T09:21:25.849Z,15.18
2017-12-02T09:22:30.146Z,14.18
2017-12-02T09:23:33.430Z,14.32
2017-12-02T09:24:35.988Z,12.90
2017-12-02T09:25:39.285Z,13.62
2017-12-02T09:26:42.900Z,16.37
2017-12-02T09:27:45.557Z,12.32
2017-12-02T09:28:48.271Z,15.32
2017-12-02T09:29:51.676Z,14.60
2017-12-02T09:30:56.021Z,14.40
2017-12-02T09:31:58.587Z,14.65
2017-12-02T09:33:01.216Z,13.55
2017-12-02T09:34:04.539Z,14.18
2017-12-02T09:35:07.103Z,16.33
2017-12-02T09:36:09.676Z,15.07
2017-12-02T09:37:12.238Z,13.60
2017-12-02T09:38:14.921Z,14.35
2017-12-02T09:39:17.471Z,13.20
2017-12-02T09:40:20.054Z,13.70
2017-12-02T09:41:23.019Z,13.75
2017-12-02T09:42:25.584Z,13.80
2017-12-02T09:43:29.489Z,14.07
2017-12-02T09:44:32.046Z,14.85
2017-12-02T09:45:34.634Z,13.57
2017-12-02T09:46:38.102Z,15.65
2017-12-02T09:47:40.641Z,14.02
2017-12-02T09:48:43.952Z,14.75
2017-12-02T09:49:46.566Z,13.88
2017-12-02T09:50:49.128Z,14.10
2017-12-02T09:51:51.672Z,14.25
2017-12-02T09:52:54.321Z,14.60
2017-12-02T09:53:56.993Z,15.55
2017-12-02T09:54:59.570Z,13.88
2017-12-02T09:56:02.159Z,13.80
2017-12-02T09:57:04.697Z,14.15
2017-12-02T09:58:08.386Z,14.63
2017-12-02T10:09:01.206Z,13.25
2017-12-02T10:10:03.778Z,12.20
2017-12-02T10:11:06.331Z,13.75
2017-12-02T10:12:10.949Z,14.15
2017-12-02T10:13:13.512Z,14.63
2017-12-02T10:14:17.364Z,13.90
2017-12-02T10:15:19.933Z,14.50
2017-12-02T10:16:22.608Z,14.40
2017-12-02T10:17:25.985Z,14.63
2017-12-02T10:18:28.538Z,14.87
2017-12-02T10:19:31.977Z,14.13
2017-12-02T10:20:34.658Z,14.45
2017-12-02T10:21:37.209Z,15.07
2017-12-02T10:22:40.700Z,15.25
2017-12-02T10:23:43.242Z,14.70
2017-12-02T10:24:46.586Z,14.07
2017-12-02T10:25:49.148Z,13.85
2017-12-02T10:26:52.702Z,14.98
2017-12-02T10:27:55.257Z,14.38
2017-12-02T10:28:57.824Z,14.48
2017-12-02T10:30:01.161Z,14.60
2017-12-02T10:31:03.761Z,14.82
2017-12-02T10:32:06.327Z,14.82
2017-12-02T10:33:09.671Z,15.73
2017-12-02T10:34:12.404Z,15.27
2017-12-02T10:35:15.814Z,14.60
2017-12-02T10:36:18.477Z,15.48
2017-12-02T10:37:21.046Z,14.60
2017-12-02T10:38:23.693Z,13.30
2017-12-02T10:39:27.017Z,15.35
2017-12-02T10:40:29.563Z,14.75
2017-12-02T10:41:32.131Z,15.73
2017-12-02T10:42:34.709Z,15.27
2017-12-02T10:43:38.516Z,13.62
2017-12-02T10:44:41.062Z,15.88
2017-12-02T10:45:43.635Z,15.68
2017-12-02T10:46:46.207Z,15.05
2017-12-02T10:47:48.775Z,15.43
2017-12-02T10:48:51.329Z,14.60
2017-12-02T10:49:53.864Z,15.13
2017-12-02T10:50:57.180Z,15.00
2017-12-02T10:51:59.719Z,14.32
2017-12-02T10:53:03.132Z,14.87
2017-12-02T10:54:09.783Z,15.57
2017-12-02T10:55:12.334Z,13.52
2017-12-02T10:56:15.747Z,13.88
2017-12-02T10:57:18.310Z,14.52
2017-12-02T10:58:20.939Z,14.75
2017-12-02T10:59:25.004Z,15.73
2017-12-02T11:00:29.421Z,15.55
2017-12-02T11:01:32.003Z,15.45
2017-12-02T11:02:34.662Z,14.70
2017-12-02T11:03:38.140Z,13.40
2017-12-02T11:04:41.516Z,14.80
2017-12-02T11:05:44.076Z,13.98
2017-12-02T11:06:47.064Z,15.35
2017-12-02T11:07:49.721Z,14.10
2017-12-02T11:08:53.092Z,15.05
2017-12-02T11:09:55.624Z,15.38
2017-12-02T11:10:58.956Z,15.63
2017-12-02T11:12:01.529Z,14.40
2017-12-02T11:13:05.100Z,15.38
2017-12-02T11:14:07.685Z,14.07
2017-12-02T11:15:10.244Z,14.10
2017-12-02T11:16:13.148Z,14.95
2017-12-02T11:17:15.682Z,14.20
2017-12-02T11:18:18.278Z,15.02
2017-12-02T11:19:20.840Z,13.70
2017-12-02T11:20:23.389Z,14.52
2017-12-02T11:21:25.968Z,16.48
2017-12-02T11:22:28.524Z,14.00
2017-12-02T11:23:31.101Z,14.35
2017-12-02T11:24:34.860Z,15.23
2017-12-02T11:25:39.215Z,15.57
2017-12-02T11:26:41.872Z,15.07
2017-12-02T11:27:45.453Z,15.43
2017-12-02T11:28:48.139Z,15.20
2017-12-02T11:29:50.761Z,15.98
2017-12-02T11:30:54.088Z,16.92
2017-12-02T11:31:57.675Z,16.37
2017-12-02T11:33:00.221Z,15.48
2017-12-02T11:34:02.822Z,16.48
2017-12-02T11:35:05.739Z,16.65
2017-12-02T11:36:09.629Z,14.13
2017-12-02T11:37:12.254Z,13.48
2017-12-02T11:38:16.055Z,13.90
2017-12-02T11:39:18.911Z,14.60
2017-12-02T11:40:21.793Z,15.38
2017-12-02T11:41:25.047Z,15.65
2017-12-02T11:42:27.697Z,18.10
2017-12-02T11:43:31.117Z,17.20
2017-12-02T11:44:33.904Z,16.45
2017-12-02T11:45:36.513Z,15.80
2017-12-02T11:46:41.793Z,15.57
2017-12-02T11:47:44.426Z,15.15
2017-12-02T11:48:48.166Z,16.55
2017-12-02T11:49:50.720Z,16.30
2017-12-02T11:50:54.210Z,14.40
2017-12-02T11:51:56.788Z,15.63
2017-12-02T11:52:59.355Z,16.08
2017-12-02T11:54:01.966Z,15.00
2017-12-02T11:55:04.581Z,15.10
2017-12-02T11:56:07.120Z,15.10
2017-12-02T11:57:11.501Z,15.98
2017-12-02T11:58:14.200Z,15.27
2017-12-02T11:59:17.493Z,16.00
2017-12-02T12:00:20.823Z,16.70
2017-12-02T12:01:24.376Z,15.20
2017-12-02T12:02:26.982Z,16.48
2017-12-02T12:03:29.577Z,16.25
2017-12-02T12:04:32.132Z,15.73
2017-12-02T12:05:34.674Z,14.82
2017-12-02T12:06:37.253Z,14.50
2017-12-02T12:07:39.804Z,14.48
2017-12-02T12:08:42.368Z,15.98
2017-12-02T12:09:47.195Z,15.43
2017-12-02T12:10:49.740Z,15.85
2017-12-02T12:11:52.316Z,15.10
2017-12-02T12:12:54.931Z,14.55
2017-12-02T12:13:57.491Z,16.75
2017-12-02T12:15:00.020Z,14.75
2017-12-02T12:16:09.590Z,14.73
2017-12-02T12:17:12.144Z,13.60
2017-12-02T12:18:15.862Z,14.57
2017-12-02T12:19:19.210Z,14.70
2017-12-02T12:20:21.815Z,14.52
2017-12-02T12:21:24.534Z,15.40
2017-12-02T12:22:27.193Z,14.40
2017-12-02T12:23:29.853Z,15.77
2017-12-02T12:24:32.543Z,14.63
2017-12-02T12:25:35.074Z,14.25
2017-12-02T12:26:39.401Z,15.75
2017-12-02T12:27:41.951Z,14.48
2017-12-02T12:28:45.389Z,14.90
2017-12-02T12:29:48.441Z,13.13
2017-12-02T12:30:50.989Z,14.77
2017-12-02T12:31:54.288Z,13.07
2017-12-02T12:32:56.815Z,15.18
2017-12-02T12:33:59.362Z,14.48
2017-12-02T12:35:02.545Z,14.07
2017-12-02T12:36:05.095Z,13.13
2017-12-02T12:37:07.637Z,13.85
2017-12-02T12:38:10.286Z,13.82
2017-12-02T12:39:14.590Z,14.00
2017-12-02T12:40:17.929Z,14.23
2017-12-02T12:41:20.492Z,14.35
2017-12-02T12:42:23.035Z,14.52
2017-12-02T12:43:25.576Z,15.05
2017-12-02T12:44:28.878Z,13.80
2017-12-02T12:45:32.576Z,14.07
2017-12-02T12:46:35.093Z,15.02
2017-12-02T12:47:40.176Z,14.65
2017-12-02T12:48:42.836Z,14.87
2017-12-02T12:49:45.432Z,15.23
2017-12-02T12:50:48.010Z,13.48
2017-12-02T12:51:50.551Z,15.82
2017-12-02T12:52:53.112Z,14.35
2017-12-02T12:53:55.673Z,15.65
2017-12-02T12:54:59.549Z,14.55
2017-12-02T12:56:02.172Z,15.35
2017-12-02T12:57:04.915Z,16.20
2017-12-02T12:58:07.469Z,17.02
2017-12-02T12:59:10.019Z,15.30
2017-12-02T13:00:14.342Z,16.48
2017-12-02T13:01:16.950Z,16.12
2017-12-02T13:02:19.566Z,14.98
2017-12-02T13:03:22.886Z,14.63
2017-12-02T13:04:26.457Z,15.38
2017-12-02T13:05:29.016Z,14.50
2017-12-02T13:06:31.597Z,15.63
2017-12-02T13:07:34.148Z,16.15
2017-12-02T13:08:36.810Z,16.20
2017-12-02T13:09:39.359Z,15.15
2017-12-02T13:10:43.991Z,17.45
2017-12-02T13:11:47.318Z,15.50
2017-12-02T13:12:51.112Z,16.55
2017-12-02T13:13:53.678Z,15.80
2017-12-02T13:14:56.220Z,15.80
2017-12-02T13:15:58.775Z,16.37
2017-12-02T13:17:02.077Z,16.67
2017-12-02T13:18:04.621Z,16.37
2017-12-02T13:19:07.956Z,16.08
2017-12-02T13:20:10.496Z,16.45
2017-12-02T13:21:13.384Z,17.30
2017-12-02T13:22:16.059Z,16.70
2017-12-02T13:23:19.419Z,18.23
2017-12-02T13:24:22.100Z,19.00
2017-12-02T13:25:24.636Z,19.87
2017-12-02T13:26:27.966Z,19.15
2017-12-02T13:27:31.778Z,18.27
2017-12-02T13:28:34.347Z,18.55
2017-12-02T13:29:37.987Z,17.58
2017-12-02T13:30:40.559Z,17.48
2017-12-02T13:31:45.094Z,20.73
2017-12-02T13:32:47.680Z,18.05
2017-12-02T13:33:50.202Z,16.87
2017-12-02T13:34:52.842Z,16.15
2017-12-02T13:35:55.394Z,16.87
2017-12-02T13:36:57.937Z,18.08
2017-12-02T13:38:01.543Z,16.52
2017-12-02T13:39:04.078Z,15.23
2017-12-02T13:40:07.709Z,14.55
2017-12-02T13:41:10.263Z,15.27
2017-12-02T13:42:12.812Z,16.30
2017-12-02T13:43:15.381Z,16.70
2017-12-02T13:44:18.009Z,15.82
2017-12-02T13:45:21.333Z,15.55
2017-12-02T13:46:23.886Z,15.90
2017-12-02T13:47:27.193Z,15.85
2017-12-02T13:48:30.734Z,14.60
2017-12-02T13:49:34.155Z,14.82
2017-12-02T13:50:36.708Z,13.90
2017-12-02T13:51:39.293Z,14.48
2017-12-02T13:52:42.894Z,15.65
2017-12-02T13:53:45.432Z,17.83
2017-12-02T13:54:48.019Z,15.25
2017-12-02T13:55:50.541Z,17.67
2017-12-02T13:56:53.959Z,17.40
2017-12-02T13:57:56.569Z,16.15
2017-12-02T13:59:00.078Z,17.00
2017-12-02T14:00:03.408Z,16.00
2017-12-02T14:01:05.953Z,18.05
2017-12-02T14:02:09.268Z,16.92
2017-12-02T14:03:11.814Z,17.35
2017-12-02T14:04:14.346Z,17.67
2017-12-02T14:05:16.884Z,16.83
2017-12-02T14:06:19.447Z,15.05
2017-12-02T14:07:22.062Z,14.82
2017-12-02T14:08:24.647Z,15.88
2017-12-02T14:09:27.261Z,15.68
2017-12-02T14:10:29.910Z,14.50
2017-12-02T14:11:33.488Z,14.98
2017-12-02T14:12:36.047Z,13.15
2017-12-02T14:13:39.361Z,14.00
2017-12-02T14:14:42.417Z,14.45
2017-12-02T14:15:45.735Z,14.43
2017-12-02T14:16:48.303Z,14.27
2017-12-02T14:17:50.876Z,14.82
2017-12-02T14:18:53.508Z,14.45
2017-12-02T14:19:56.818Z,15.45
2017-12-02T14:20:59.363Z,14.45
2017-12-02T14:22:02.905Z,16.48
2017-12-02T14:23:05.498Z,15.98
2017-12-02T14:24:08.074Z,13.27
2017-12-02T14:25:11.426Z,14.45
2017-12-02T14:26:13.965Z,15.18
2017-12-02T14:27:16.530Z,14.75
2017-12-02T14:28:19.259Z,15.88
2017-12-02T14:29:22.585Z,13.93
2017-12-02T14:30:25.126Z,14.27
2017-12-02T14:31:27.690Z,14.43
2017-12-02T14:32:31.083Z,14.87
2017-12-02T14:33:33.627Z,14.20
2017-12-02T14:34:36.998Z,15.30
2017-12-02T14:35:39.581Z,15.73
2017-12-02T14:36:43.012Z,16.17
2017-12-02T14:37:45.582Z,14.95
2017-12-02T14:38:48.573Z,15.35
2017-12-02T14:39:51.120Z,14.43
2017-12-02T14:40:53.683Z,14.82
2017-12-02T14:41:56.230Z,15.50
2017-12-02T14:42:59.735Z,14.45
2017-12-02T14:44:02.296Z,14.30
2017-12-02T14:45:05.894Z,15.70
2017-12-02T14:46:08.477Z,13.98
2017-12-02T14:47:12.151Z,14.95
2017-12-02T14:48:14.706Z,14.63
2017-12-02T14:49:17.296Z,15.95